sensor_id;sensor_type;location;lat;lon;timestamp;pressure;altitude;pressure_sealevel;temperature;humidity
27864;BME280;15980;51.092;13.916;2023-04-20T00:02:12;98949.66;;;4.56;100.00
27864;BME280;15980;51.092;13.916;2023-04-20T00:12:12;98947.75;;;4.37;100.00
27864;BME280;15980;51.092;13.916;2023-04-20T00:22:13;98947.25;;;4.35;100.00
27864;BME280;15980;51.092;13.916;2023-04-20T00:32:13;98939.94;;;4.31;100.00
27864;BME280;15980;51.092;13.916;2023-04-20T00:42:13;98945.56;;;4.39;100.00
27864;BME280;15980;51.092;13.916;2023-04-20T00:52:13;98937.66;;;4.19;100.00
27864;BME280;15980;51.092;13.916;2023-04-20T01:02:14;98933.94;;;4.15;100.00
27864;BME280;15980;51.092;13.916;2023-04-20T01:12:14;98941.19;;;4.01;100.00
27864;BME280;15980;51.092;13.916;2023-04-20T01:22:21;98927.69;;;3.96;100.00
27864;BME280;15980;51.092;13.916;2023-04-20T01:32:21;98929.91;;;3.89;100.00
27864;BME280;15980;51.092;13.916;2023-04-20T01:42:22;98914.50;;;3.84;100.00
27864;BME280;15980;51.092;13.916;2023-04-20T01:52:23;98922.94;;;3.83;100.00
27864;BME280;15980;51.092;13.916;2023-04-20T02:02:23;98918.91;;;3.80;100.00
27864;BME280;15980;51.092;13.916;2023-04-20T02:12:23;98921.19;;;3.49;99.31
27864;BME280;15980;51.092;13.916;2023-04-20T02:22:24;98916.41;;;3.36;100.00
27864;BME280;15980;51.092;13.916;2023-04-20T02:32:24;98921.47;;;2.90;99.66
27864;BME280;15980;51.092;13.916;2023-04-20T02:42:25;98927.94;;;2.60;100.00
27864;BME280;15980;51.092;13.916;2023-04-20T02:52:25;98915.19;;;2.65;100.00
27864;BME280;15980;51.092;13.916;2023-04-20T03:02:25;98916.84;;;2.61;100.00
27864;BME280;15980;51.092;13.916;2023-04-20T03:12:25;98924.84;;;2.76;100.00
27864;BME280;15980;51.092;13.916;2023-04-20T03:22:26;98938.59;;;2.85;100.00
27864;BME280;15980;51.092;13.916;2023-04-20T03:32:26;98945.56;;;2.57;100.00
27864;BME280;15980;51.092;13.916;2023-04-20T03:42:26;98948.59;;;2.50;100.00
27864;BME280;15980;51.092;13.916;2023-04-20T03:52:27;98950.69;;;2.59;100.00
27864;BME280;15980;51.092;13.916;2023-04-20T04:02:27;98946.22;;;2.78;100.00
27864;BME280;15980;51.092;13.916;2023-04-20T04:12:27;98938.22;;;2.63;100.00
27864;BME280;15980;51.092;13.916;2023-04-20T04:22:27;98952.84;;;2.96;100.00
27864;BME280;15980;51.092;13.916;2023-04-20T04:32:28;98955.78;;;3.04;100.00
27864;BME280;15980;51.092;13.916;2023-04-20T04:42:28;98967.78;;;2.93;100.00
27864;BME280;15980;51.092;13.916;2023-04-20T04:52:28;98969.56;;;3.08;100.00
27864;BME280;15980;51.092;13.916;2023-04-20T05:02:28;98968.03;;;2.58;100.00
27864;BME280;15980;51.092;13.916;2023-04-20T05:12:29;98969.53;;;2.79;100.00
27864;BME280;15980;51.092;13.916;2023-04-20T05:22:29;98993.22;;;2.97;100.00
27864;BME280;15980;51.092;13.916;2023-04-20T05:32:29;98995.53;;;2.80;100.00
27864;BME280;15980;51.092;13.916;2023-04-20T05:42:30;98999.72;;;3.30;100.00
27864;BME280;15980;51.092;13.916;2023-04-20T05:52:30;98995.31;;;3.10;100.00
27864;BME280;15980;51.092;13.916;2023-04-20T06:02:30;98989.53;;;3.75;100.00
27864;BME280;15980;51.092;13.916;2023-04-20T06:12:30;98979.75;;;4.59;98.78
27864;BME280;15980;51.092;13.916;2023-04-20T06:22:31;98989.09;;;4.72;95.83
27864;BME280;15980;51.092;13.916;2023-04-20T06:32:31;98988.75;;;5.11;95.79
27864;BME280;15980;51.092;13.916;2023-04-20T06:42:31;99003.13;;;4.41;95.27
27864;BME280;15980;51.092;13.916;2023-04-20T06:52:31;98989.75;;;4.64;95.76
27864;BME280;15980;51.092;13.916;2023-04-20T07:02:49;99010.63;;;4.87;94.39
27864;BME280;15980;51.092;13.916;2023-04-20T07:12:50;98999.16;;;4.90;94.43
27864;BME280;15980;51.092;13.916;2023-04-20T07:22:50;98998.59;;;5.07;92.99
27864;BME280;15980;51.092;13.916;2023-04-20T07:32:50;98997.94;;;5.15;94.13
27864;BME280;15980;51.092;13.916;2023-04-20T07:42:51;99014.94;;;5.40;91.19
27864;BME280;15980;51.092;13.916;2023-04-20T07:52:51;99027.56;;;5.49;90.59
27864;BME280;15980;51.092;13.916;2023-04-20T08:02:51;99024.84;;;6.37;89.08
27864;BME280;15980;51.092;13.916;2023-04-20T08:12:52;99014.28;;;6.71;87.64
27864;BME280;15980;51.092;13.916;2023-04-20T08:22:52;99012.25;;;6.77;83.85
27864;BME280;15980;51.092;13.916;2023-04-20T08:32:52;99020.94;;;7.37;86.13
27864;BME280;15980;51.092;13.916;2023-04-20T08:42:52;99028.84;;;7.03;84.23
27864;BME280;15980;51.092;13.916;2023-04-20T08:52:53;99028.34;;;7.01;87.73
27864;BME280;15980;51.092;13.916;2023-04-20T09:02:54;99013.63;;;6.88;89.30
27864;BME280;15980;51.092;13.916;2023-04-20T09:12:54;99007.38;;;7.32;89.51
27864;BME280;15980;51.092;13.916;2023-04-20T09:22:55;99015.84;;;7.22;89.83
27864;BME280;15980;51.092;13.916;2023-04-20T09:33:02;99018.00;;;7.34;89.51
27864;BME280;15980;51.092;13.916;2023-04-20T09:43:23;98998.47;;;6.59;90.57
27864;BME280;15980;51.092;13.916;2023-04-20T09:53:24;99003.38;;;6.21;92.31
27864;BME280;15980;51.092;13.916;2023-04-20T10:03:24;99001.44;;;6.36;92.53
27864;BME280;15980;51.092;13.916;2023-04-20T10:13:32;98990.72;;;6.53;92.87
27864;BME280;15980;51.092;13.916;2023-04-20T10:23:32;98973.94;;;6.82;91.37
27864;BME280;15980;51.092;13.916;2023-04-20T10:33:33;98971.72;;;6.84;90.94
27864;BME280;15980;51.092;13.916;2023-04-20T10:43:33;98973.53;;;7.11;92.07
27864;BME280;15980;51.092;13.916;2023-04-20T10:53:34;98974.19;;;7.70;90.23
27864;BME280;15980;51.092;13.916;2023-04-20T11:03:34;98971.66;;;7.42;88.61
27864;BME280;15980;51.092;13.916;2023-04-20T11:13:34;98956.94;;;7.92;87.39
27864;BME280;15980;51.092;13.916;2023-04-20T11:23:36;98949.91;;;8.73;87.02
27864;BME280;15980;51.092;13.916;2023-04-20T11:33:37;98942.00;;;8.80;87.42
27864;BME280;15980;51.092;13.916;2023-04-20T11:43:37;98934.75;;;8.41;87.26
27864;BME280;15980;51.092;13.916;2023-04-20T11:53:38;98942.47;;;8.48;86.96
27864;BME280;15980;51.092;13.916;2023-04-20T12:03:38;98925.75;;;8.93;86.94
27864;BME280;15980;51.092;13.916;2023-04-20T12:13:38;98928.34;;;8.72;87.31
27864;BME280;15980;51.092;13.916;2023-04-20T12:23:38;98919.81;;;8.73;87.50
27864;BME280;15980;51.092;13.916;2023-04-20T12:33:39;98915.31;;;8.77;88.15
27864;BME280;15980;51.092;13.916;2023-04-20T12:43:39;98904.19;;;8.74;90.45
27864;BME280;15980;51.092;13.916;2023-04-20T12:53:40;98889.81;;;9.20;90.99
27864;BME280;15980;51.092;13.916;2023-04-20T13:03:40;98881.97;;;9.48;89.01
27864;BME280;15980;51.092;13.916;2023-04-20T13:13:40;98880.91;;;9.70;89.12
27864;BME280;15980;51.092;13.916;2023-04-20T13:23:41;98863.97;;;9.38;89.76
27864;BME280;15980;51.092;13.916;2023-04-20T13:33:51;98852.25;;;10.18;90.39
27864;BME280;15980;51.092;13.916;2023-04-20T13:43:51;98846.28;;;10.78;86.83
27864;BME280;15980;51.092;13.916;2023-04-20T13:53:51;98836.97;;;10.91;86.39
27864;BME280;15980;51.092;13.916;2023-04-20T14:03:53;98840.38;;;10.88;88.01
27864;BME280;15980;51.092;13.916;2023-04-20T14:13:54;98822.00;;;11.01;88.16
27864;BME280;15980;51.092;13.916;2023-04-20T14:23:54;98812.75;;;11.06;88.04
27864;BME280;15980;51.092;13.916;2023-04-20T14:33:55;98809.13;;;11.50;86.83
27864;BME280;15980;51.092;13.916;2023-04-20T14:43:55;98797.63;;;12.77;82.27
27864;BME280;15980;51.092;13.916;2023-04-20T14:53:55;98793.06;;;13.29;79.36
27864;BME280;15980;51.092;13.916;2023-04-20T15:03:55;98793.63;;;13.18;75.94
27864;BME280;15980;51.092;13.916;2023-04-20T15:13:56;98782.75;;;13.57;74.29
27864;BME280;15980;51.092;13.916;2023-04-20T15:23:56;98778.34;;;13.88;71.70
27864;BME280;15980;51.092;13.916;2023-04-20T15:33:58;98776.56;;;13.79;70.80
27864;BME280;15980;51.092;13.916;2023-04-20T15:43:59;98760.91;;;13.83;69.44
27864;BME280;15980;51.092;13.916;2023-04-20T15:53:59;98762.69;;;13.25;69.71
27864;BME280;15980;51.092;13.916;2023-04-20T16:03:59;98762.22;;;13.55;69.98
27864;BME280;15980;51.092;13.916;2023-04-20T16:14:00;98755.56;;;13.40;68.87
27864;BME280;15980;51.092;13.916;2023-04-20T16:24:00;98756.38;;;13.25;69.94
27864;BME280;15980;51.092;13.916;2023-04-20T16:34:01;98761.34;;;13.35;71.90
27864;BME280;15980;51.092;13.916;2023-04-20T16:44:01;98766.69;;;13.28;69.75
27864;BME280;15980;51.092;13.916;2023-04-20T16:54:01;98760.09;;;13.16;69.93
27864;BME280;15980;51.092;13.916;2023-04-20T17:04:02;98768.38;;;12.73;70.93
27864;BME280;15980;51.092;13.916;2023-04-20T17:14:02;98765.53;;;12.41;73.23
27864;BME280;15980;51.092;13.916;2023-04-20T17:24:02;98772.97;;;12.25;72.82
27864;BME280;15980;51.092;13.916;2023-04-20T17:34:03;98767.16;;;12.02;73.87
27864;BME280;15980;51.092;13.916;2023-04-20T17:44:04;98764.34;;;11.86;74.88
27864;BME280;15980;51.092;13.916;2023-04-20T18:04:21;98769.88;;;11.38;77.08
27864;BME280;15980;51.092;13.916;2023-04-20T18:14:22;98780.81;;;11.13;77.94
27864;BME280;15980;51.092;13.916;2023-04-20T18:24:22;98783.31;;;10.94;78.62
27864;BME280;15980;51.092;13.916;2023-04-20T18:34:22;98796.53;;;10.80;79.04
27864;BME280;15980;51.092;13.916;2023-04-20T18:44:22;98798.06;;;10.56;80.16
27864;BME280;15980;51.092;13.916;2023-04-20T18:54:23;98801.59;;;10.45;80.66
27864;BME280;15980;51.092;13.916;2023-04-20T19:04:23;98810.41;;;10.29;81.66
27864;BME280;15980;51.092;13.916;2023-04-20T19:14:23;98795.88;;;10.08;82.61
27864;BME280;15980;51.092;13.916;2023-04-20T19:24:24;98803.88;;;9.92;83.72
27864;BME280;15980;51.092;13.916;2023-04-20T19:34:24;98800.47;;;9.95;84.22
27864;BME280;15980;51.092;13.916;2023-04-20T19:44:24;98802.06;;;9.96;84.49
27864;BME280;15980;51.092;13.916;2023-04-20T19:54:25;98807.47;;;9.84;85.35
27864;BME280;15980;51.092;13.916;2023-04-20T20:04:25;98811.41;;;9.74;86.08
27864;BME280;15980;51.092;13.916;2023-04-20T20:14:25;98814.28;;;9.78;86.59
27864;BME280;15980;51.092;13.916;2023-04-20T20:24:26;98808.81;;;9.78;86.69
27864;BME280;15980;51.092;13.916;2023-04-20T20:34:26;98808.53;;;9.71;87.02
27864;BME280;15980;51.092;13.916;2023-04-20T20:44:26;98808.25;;;9.64;87.40
27864;BME280;15980;51.092;13.916;2023-04-20T20:54:27;98815.56;;;9.51;88.48
27864;BME280;15980;51.092;13.916;2023-04-20T21:04:27;98822.59;;;9.31;90.21
27864;BME280;15980;51.092;13.916;2023-04-20T21:14:27;98832.97;;;9.17;91.05
27864;BME280;15980;51.092;13.916;2023-04-20T21:24:28;98831.09;;;8.92;91.37
27864;BME280;15980;51.092;13.916;2023-04-20T21:34:28;98836.31;;;8.67;92.49
27864;BME280;15980;51.092;13.916;2023-04-20T21:44:28;98835.50;;;8.49;94.00
27864;BME280;15980;51.092;13.916;2023-04-20T21:54:29;98841.94;;;8.28;94.89
27864;BME280;15980;51.092;13.916;2023-04-20T22:04:29;98827.75;;;8.08;95.26
27864;BME280;15980;51.092;13.916;2023-04-20T22:14:29;98832.72;;;7.89;96.55
27864;BME280;15980;51.092;13.916;2023-04-20T22:24:29;98824.84;;;7.96;98.03
27864;BME280;15980;51.092;13.916;2023-04-20T22:34:30;98826.94;;;7.99;98.01
27864;BME280;15980;51.092;13.916;2023-04-20T22:44:30;98830.31;;;7.87;98.42
27864;BME280;15980;51.092;13.916;2023-04-20T22:54:30;98841.25;;;7.96;98.97
27864;BME280;15980;51.092;13.916;2023-04-20T23:04:31;98841.56;;;8.03;99.00
27864;BME280;15980;51.092;13.916;2023-04-20T23:14:31;98834.19;;;8.04;98.88
27864;BME280;15980;51.092;13.916;2023-04-20T23:24:31;98835.47;;;7.98;98.87
27864;BME280;15980;51.092;13.916;2023-04-20T23:34:31;98839.31;;;7.97;99.14
27864;BME280;15980;51.092;13.916;2023-04-20T23:44:32;98835.13;;;7.91;99.10
27864;BME280;15980;51.092;13.916;2023-04-20T23:54:32;98833.53;;;7.90;99.69
